sensor_id;sensor_type;location;lat;lon;timestamp;pressure;altitude;pressure_sealevel;temperature;humidity
25232;BME280;13176;51.140;6.290;2022-12-01T00:02:04;101859.66;;;9.68;83.47
25232;BME280;13176;51.140;6.290;2022-12-01T00:04:31;101877.13;;;9.84;83.52
25232;BME280;13176;51.140;6.290;2022-12-01T00:06:57;101860.59;;;9.76;83.32
25232;BME280;13176;51.140;6.290;2022-12-01T00:09:24;101836.31;;;9.81;83.05
25232;BME280;13176;51.140;6.290;2022-12-01T00:12:09;101870.28;;;9.95;83.23
25232;BME280;13176;51.140;6.290;2022-12-01T00:14:35;101830.06;;;9.63;83.81
25232;BME280;13176;51.140;6.290;2022-12-01T00:17:02;101879.84;;;9.93;83.61
25232;BME280;13176;51.140;6.290;2022-12-01T00:19:30;101900.00;;;10.10;83.65
25232;BME280;13176;51.140;6.290;2022-12-01T00:21:56;101895.66;;;10.11;83.74
25232;BME280;13176;51.140;6.290;2022-12-01T00:24:22;101880.66;;;9.89;84.06
25232;BME280;13176;51.140;6.290;2022-12-01T00:26:49;101847.41;;;9.58;84.84
25232;BME280;13176;51.140;6.290;2022-12-01T00:29:16;101837.09;;;9.71;84.18
25232;BME280;13176;51.140;6.290;2022-12-01T00:31:42;101840.66;;;9.81;83.81
25232;BME280;13176;51.140;6.290;2022-12-01T00:34:21;101852.81;;;9.79;84.19
25232;BME280;13176;51.140;6.290;2022-12-01T00:36:48;101895.59;;;10.06;84.03
25232;BME280;13176;51.140;6.290;2022-12-01T00:39:14;101878.88;;;9.85;84.58
25232;BME280;13176;51.140;6.290;2022-12-01T00:41:41;101807.34;;;9.47;84.66
25232;BME280;13176;51.140;6.290;2022-12-01T00:44:07;101854.56;;;9.86;84.07
25232;BME280;13176;51.140;6.290;2022-12-01T00:46:34;101871.97;;;9.90;84.16
25232;BME280;13176;51.140;6.290;2022-12-01T00:49:00;101894.75;;;10.06;83.82
25232;BME280;13176;51.140;6.290;2022-12-01T00:51:26;101851.13;;;9.90;83.95
25232;BME280;13176;51.140;6.290;2022-12-01T00:53:53;101869.38;;;9.90;83.81
25232;BME280;13176;51.140;6.290;2022-12-01T00:56:19;101876.38;;;9.97;84.12
25232;BME280;13176;51.140;6.290;2022-12-01T00:58:46;101858.13;;;9.92;83.87
25232;BME280;13176;51.140;6.290;2022-12-01T01:01:12;101818.06;;;9.80;83.26
25232;BME280;13176;51.140;6.290;2022-12-01T01:03:39;101861.53;;;9.87;83.73
25232;BME280;13176;51.140;6.290;2022-12-01T01:06:08;101832.88;;;9.85;83.43
25232;BME280;13176;51.140;6.290;2022-12-01T01:08:36;101850.19;;;9.80;83.52
25232;BME280;13176;51.140;6.290;2022-12-01T01:11:03;101885.97;;;9.98;83.49
25232;BME280;13176;51.140;6.290;2022-12-01T01:13:30;101877.16;;;9.87;83.54
25232;BME280;13176;51.140;6.290;2022-12-01T01:16:08;101904.41;;;10.16;83.17
25232;BME280;13176;51.140;6.290;2022-12-01T01:18:36;101840.63;;;9.78;83.43
25232;BME280;13176;51.140;6.290;2022-12-01T01:21:05;101899.09;;;10.07;83.43
25232;BME280;13176;51.140;6.290;2022-12-01T01:23:32;101807.38;;;9.50;83.06
25232;BME280;13176;51.140;6.290;2022-12-01T01:26:04;101912.97;;;10.04;84.01
25232;BME280;13176;51.140;6.290;2022-12-01T01:28:31;101739.19;;;8.96;83.84
25232;BME280;13176;51.140;6.290;2022-12-01T01:30:58;101914.63;;;9.98;83.71
25232;BME280;13176;51.140;6.290;2022-12-01T01:33:25;101884.09;;;9.85;83.83
25232;BME280;13176;51.140;6.290;2022-12-01T01:35:51;101885.84;;;9.83;83.80
25232;BME280;13176;51.140;6.290;2022-12-01T01:38:18;101832.53;;;9.46;83.85
25232;BME280;13176;51.140;6.290;2022-12-01T01:40:45;101926.94;;;10.08;83.61
25232;BME280;13176;51.140;6.290;2022-12-01T01:43:36;101823.00;;;9.50;83.38
25232;BME280;13176;51.140;6.290;2022-12-01T01:46:04;101898.06;;;9.93;83.25
25232;BME280;13176;51.140;6.290;2022-12-01T01:48:32;101870.13;;;9.74;83.46
25232;BME280;13176;51.140;6.290;2022-12-01T01:50:59;101907.66;;;9.92;83.71
25232;BME280;13176;51.140;6.290;2022-12-01T01:53:26;101864.03;;;9.73;83.79
25232;BME280;13176;51.140;6.290;2022-12-01T01:55:52;101904.94;;;9.79;83.96
25232;BME280;13176;51.140;6.290;2022-12-01T01:58:19;101908.41;;;9.84;84.16
25232;BME280;13176;51.140;6.290;2022-12-01T02:00:46;101806.31;;;9.25;84.05
25232;BME280;13176;51.140;6.290;2022-12-01T02:03:15;101932.97;;;10.04;83.96
25232;BME280;13176;51.140;6.290;2022-12-01T02:05:43;101926.06;;;10.09;83.70
25232;BME280;13176;51.140;6.290;2022-12-01T02:08:10;101823.75;;;9.35;84.11
25232;BME280;13176;51.140;6.290;2022-12-01T02:11:13;101926.72;;;9.90;84.58
25232;BME280;13176;51.140;6.290;2022-12-01T02:14:07;101929.28;;;9.84;84.92
25232;BME280;13176;51.140;6.290;2022-12-01T02:19:33;101929.41;;;9.99;84.59
25232;BME280;13176;51.140;6.290;2022-12-01T02:22:35;101929.34;;;9.93;84.41
25232;BME280;13176;51.140;6.290;2022-12-01T02:28:26;101922.38;;;9.89;84.64
25232;BME280;13176;51.140;6.290;2022-12-01T02:32:11;101874.25;;;9.51;85.54
25232;BME280;13176;51.140;6.290;2022-12-01T02:34:18;101927.63;;;9.92;84.50
25232;BME280;13176;51.140;6.290;2022-12-01T02:36:55;101881.50;;;9.82;84.00
25232;BME280;13176;51.140;6.290;2022-12-01T02:39:37;101887.59;;;9.87;84.23
25232;BME280;13176;51.140;6.290;2022-12-01T02:42:10;101906.72;;;9.83;84.71
25232;BME280;13176;51.140;6.290;2022-12-01T02:45:01;101920.84;;;10.09;84.31
25232;BME280;13176;51.140;6.290;2022-12-01T02:47:29;101890.28;;;9.94;83.39
25232;BME280;13176;51.140;6.290;2022-12-01T02:49:58;101925.81;;;9.83;84.58
25232;BME280;13176;51.140;6.290;2022-12-01T02:52:27;101819.44;;;9.39;84.56
25232;BME280;13176;51.140;6.290;2022-12-01T02:54:55;101917.09;;;9.80;85.10
25232;BME280;13176;51.140;6.290;2022-12-01T02:57:22;101911.09;;;9.90;84.97
25232;BME280;13176;51.140;6.290;2022-12-01T02:59:51;101897.97;;;9.78;84.49
25232;BME280;13176;51.140;6.290;2022-12-01T03:02:36;101929.28;;;9.81;85.18
25232;BME280;13176;51.140;6.290;2022-12-01T03:05:23;101810.66;;;9.28;84.71
25232;BME280;13176;51.140;6.290;2022-12-01T03:08:09;101923.41;;;10.03;84.31
25232;BME280;13176;51.140;6.290;2022-12-01T03:10:47;101912.88;;;9.97;84.52
25232;BME280;13176;51.140;6.290;2022-12-01T03:13:45;101894.59;;;9.91;84.42
25232;BME280;13176;51.140;6.290;2022-12-01T03:17:03;101931.25;;;10.06;84.15
25232;BME280;13176;51.140;6.290;2022-12-01T03:19:17;101848.31;;;9.63;84.22
25232;BME280;13176;51.140;6.290;2022-12-01T03:21:53;101814.06;;;9.21;85.01
25232;BME280;13176;51.140;6.290;2022-12-01T03:24:25;101897.84;;;9.66;85.74
25232;BME280;13176;51.140;6.290;2022-12-01T03:26:55;101911.81;;;9.71;85.22
25232;BME280;13176;51.140;6.290;2022-12-01T03:29:35;101886.56;;;9.68;85.38
25232;BME280;13176;51.140;6.290;2022-12-01T03:32:10;101859.44;;;9.47;85.20
25232;BME280;13176;51.140;6.290;2022-12-01T03:34:44;101888.44;;;9.80;84.79
25232;BME280;13176;51.140;6.290;2022-12-01T03:37:15;101923.34;;;9.98;84.88
25232;BME280;13176;51.140;6.290;2022-12-01T03:39:45;101854.22;;;9.44;85.00
25232;BME280;13176;51.140;6.290;2022-12-01T03:42:34;101930.13;;;9.81;85.43
25232;BME280;13176;51.140;6.290;2022-12-01T03:45:14;101873.44;;;9.58;85.08
25232;BME280;13176;51.140;6.290;2022-12-01T03:47:43;101887.41;;;9.63;84.76
25232;BME280;13176;51.140;6.290;2022-12-01T03:50:10;101923.31;;;9.97;84.69
25232;BME280;13176;51.140;6.290;2022-12-01T03:52:52;101900.59;;;9.84;84.90
25232;BME280;13176;51.140;6.290;2022-12-01T03:55:29;101929.47;;;10.03;84.53
25232;BME280;13176;51.140;6.290;2022-12-01T03:58:00;101929.34;;;9.93;84.98
25232;BME280;13176;51.140;6.290;2022-12-01T04:00:29;101911.88;;;9.80;85.10
25232;BME280;13176;51.140;6.290;2022-12-01T04:02:58;101934.69;;;10.02;84.89
25232;BME280;13176;51.140;6.290;2022-12-01T04:05:25;101889.09;;;9.58;85.45
25232;BME280;13176;51.140;6.290;2022-12-01T04:07:52;101830.63;;;9.29;85.14
25232;BME280;13176;51.140;6.290;2022-12-01T04:10:19;101816.72;;;9.25;85.05
25232;BME280;13176;51.140;6.290;2022-12-01T04:12:45;101815.00;;;9.29;85.08
25232;BME280;13176;51.140;6.290;2022-12-01T04:15:12;101783.59;;;9.08;85.41
25232;BME280;13176;51.140;6.290;2022-12-01T04:17:40;101924.09;;;9.87;85.54
25232;BME280;13176;51.140;6.290;2022-12-01T04:20:12;101901.34;;;9.68;85.44
25232;BME280;13176;51.140;6.290;2022-12-01T04:22:39;101882.09;;;9.54;85.76
25232;BME280;13176;51.140;6.290;2022-12-01T04:25:06;101903.03;;;9.63;86.24
25232;BME280;13176;51.140;6.290;2022-12-01T04:27:32;101887.41;;;9.63;85.61
25232;BME280;13176;51.140;6.290;2022-12-01T04:29:59;101906.66;;;9.77;85.11
25232;BME280;13176;51.140;6.290;2022-12-01T04:32:25;101897.81;;;9.63;85.61
25232;BME280;13176;51.140;6.290;2022-12-01T04:34:52;101904.97;;;9.82;85.11
25232;BME280;13176;51.140;6.290;2022-12-01T04:37:18;101924.09;;;9.87;85.10
25232;BME280;13176;51.140;6.290;2022-12-01T04:39:45;101870.75;;;9.46;85.15
25232;BME280;13176;51.140;6.290;2022-12-01T04:42:12;101798.47;;;9.24;84.99
25232;BME280;13176;51.140;6.290;2022-12-01T04:44:38;101846.06;;;9.09;86.23
25232;BME280;13176;51.140;6.290;2022-12-01T04:47:05;101894.34;;;9.64;85.75
25232;BME280;13176;51.140;6.290;2022-12-01T04:49:32;101923.31;;;9.97;84.53
25232;BME280;13176;51.140;6.290;2022-12-01T04:51:58;101910.03;;;9.67;84.88
25232;BME280;13176;51.140;6.290;2022-12-01T04:54:25;101890.91;;;9.68;84.58
25232;BME280;13176;51.140;6.290;2022-12-01T04:56:51;101918.91;;;9.90;84.61
25232;BME280;13176;51.140;6.290;2022-12-01T04:59:18;101873.69;;;9.85;83.92
25232;BME280;13176;51.140;6.290;2022-12-01T05:01:44;101896.50;;;10.07;83.73
25232;BME280;13176;51.140;6.290;2022-12-01T05:04:13;101892.97;;;10.02;83.69
25232;BME280;13176;51.140;6.290;2022-12-01T05:06:40;101920.88;;;10.12;83.61
25232;BME280;13176;51.140;6.290;2022-12-01T05:09:07;101924.25;;;10.02;83.79
25232;BME280;13176;51.140;6.290;2022-12-01T05:11:39;101897.75;;;9.57;84.95
25232;BME280;13176;51.140;6.290;2022-12-01T05:14:05;101908.31;;;9.69;84.48
25232;BME280;13176;51.140;6.290;2022-12-01T05:16:32;101875.94;;;9.43;85.25
25232;BME280;13176;51.140;6.290;2022-12-01T05:19:02;101901.22;;;9.56;85.35
25232;BME280;13176;51.140;6.290;2022-12-01T05:21:48;101927.53;;;9.80;84.84
25232;BME280;13176;51.140;6.290;2022-12-01T05:24:16;101915.31;;;9.76;84.87
25232;BME280;13176;51.140;6.290;2022-12-01T05:26:43;101894.38;;;9.67;84.66
25232;BME280;13176;51.140;6.290;2022-12-01T05:29:10;101908.31;;;9.69;84.57
25232;BME280;13176;51.140;6.290;2022-12-01T05:31:37;101924.00;;;9.75;84.47
25232;BME280;13176;51.140;6.290;2022-12-01T05:34:05;101893.38;;;9.53;84.75
25232;BME280;13176;51.140;6.290;2022-12-01T05:36:32;101935.28;;;9.75;84.42
25232;BME280;13176;51.140;6.290;2022-12-01T05:38:58;101896.88;;;9.53;84.64
25232;BME280;13176;51.140;6.290;2022-12-01T05:41:25;101871.41;;;9.27;84.30
25232;BME280;13176;51.140;6.290;2022-12-01T05:43:51;101882.78;;;9.35;84.60
25232;BME280;13176;51.140;6.290;2022-12-01T05:46:17;101899.44;;;9.52;84.23
25232;BME280;13176;51.140;6.290;2022-12-01T05:48:44;101911.59;;;9.53;84.06
25232;BME280;13176;51.140;6.290;2022-12-01T05:51:12;101875.00;;;9.38;83.56
25232;BME280;13176;51.140;6.290;2022-12-01T05:53:43;101909.78;;;9.43;83.73
25232;BME280;13176;51.140;6.290;2022-12-01T05:56:09;101918.56;;;9.54;83.41
25232;BME280;13176;51.140;6.290;2022-12-01T05:58:36;101896.69;;;9.37;83.52
25232;BME280;13176;51.140;6.290;2022-12-01T06:01:03;101924.72;;;9.60;83.25
25232;BME280;13176;51.140;6.290;2022-12-01T06:03:29;101930.84;;;9.65;83.05
25232;BME280;13176;51.140;6.290;2022-12-01T06:05:56;101920.28;;;9.52;82.57
25232;BME280;13176;51.140;6.290;2022-12-01T06:08:22;101918.69;;;9.66;82.52
25232;BME280;13176;51.140;6.290;2022-12-01T06:10:48;101946.56;;;9.73;82.38
25232;BME280;13176;51.140;6.290;2022-12-01T06:13:15;101906.38;;;9.50;82.19
25232;BME280;13176;51.140;6.290;2022-12-01T06:15:41;101910.00;;;9.64;81.67
25232;BME280;13176;51.140;6.290;2022-12-01T06:18:08;101865.41;;;9.35;81.50
25232;BME280;13176;51.140;6.290;2022-12-01T06:20:35;101852.09;;;9.04;81.00
25232;BME280;13176;51.140;6.290;2022-12-01T06:23:02;101870.31;;;9.04;81.14
25232;BME280;13176;51.140;6.290;2022-12-01T06:25:28;101939.34;;;9.45;81.52
25232;BME280;13176;51.140;6.290;2022-12-01T06:27:58;101888.75;;;9.23;81.02
25232;BME280;13176;51.140;6.290;2022-12-01T06:30:24;101920.22;;;9.43;80.89
25232;BME280;13176;51.140;6.290;2022-12-01T06:32:51;101911.44;;;9.35;80.63
25232;BME280;13176;51.140;6.290;2022-12-01T06:35:17;101892.44;;;9.45;80.72
25232;BME280;13176;51.140;6.290;2022-12-01T06:37:44;101963.19;;;9.87;80.29
25232;BME280;13176;51.140;6.290;2022-12-01T06:40:10;101943.09;;;9.74;79.94
25232;BME280;13176;51.140;6.290;2022-12-01T06:42:37;101944.84;;;9.75;79.61
25232;BME280;13176;51.140;6.290;2022-12-01T06:45:04;101858.34;;;9.24;79.69
25232;BME280;13176;51.140;6.290;2022-12-01T06:47:30;101936.09;;;9.67;79.83
25232;BME280;13176;51.140;6.290;2022-12-01T06:49:57;101869.56;;;9.17;79.42
25232;BME280;13176;51.140;6.290;2022-12-01T06:52:23;101946.34;;;9.52;79.46
25232;BME280;13176;51.140;6.290;2022-12-01T06:54:49;101911.50;;;9.41;79.58
25232;BME280;13176;51.140;6.290;2022-12-01T06:57:16;101949.78;;;9.51;79.40
25232;BME280;13176;51.140;6.290;2022-12-01T06:59:43;101970.59;;;9.45;80.67
25232;BME280;13176;51.140;6.290;2022-12-01T07:02:12;101943.47;;;9.28;80.83
25232;BME280;13176;51.140;6.290;2022-12-01T07:04:39;101876.25;;;8.96;80.08
25232;BME280;13176;51.140;6.290;2022-12-01T07:07:05;101954.59;;;9.15;80.68
25232;BME280;13176;51.140;6.290;2022-12-01T07:09:32;101988.03;;;9.52;80.02
25232;BME280;13176;51.140;6.290;2022-12-01T07:11:58;101936.47;;;9.22;79.98
25232;BME280;13176;51.140;6.290;2022-12-01T07:14:25;101992.47;;;9.62;79.37
25232;BME280;13176;51.140;6.290;2022-12-01T07:16:52;101991.47;;;9.51;79.53
25232;BME280;13176;51.140;6.290;2022-12-01T07:19:18;101967.72;;;9.22;80.33
25232;BME280;13176;51.140;6.290;2022-12-01T07:21:45;101943.47;;;9.29;79.48
25232;BME280;13176;51.140;6.290;2022-12-01T07:24:11;101987.13;;;9.50;79.06
25232;BME280;13176;51.140;6.290;2022-12-01T07:26:39;101937.44;;;9.32;78.35
25232;BME280;13176;51.140;6.290;2022-12-01T07:29:06;101860.56;;;8.87;78.32
25232;BME280;13176;51.140;6.290;2022-12-01T07:31:35;101982.94;;;9.64;78.36
25232;BME280;13176;51.140;6.290;2022-12-01T07:34:02;101974.28;;;9.65;77.82
25232;BME280;13176;51.140;6.290;2022-12-01T07:36:28;101928.69;;;9.25;77.88
25232;BME280;13176;51.140;6.290;2022-12-01T07:38:55;101930.41;;;9.25;78.06
25232;BME280;13176;51.140;6.290;2022-12-01T07:41:21;101958.34;;;9.39;78.63
25232;BME280;13176;51.140;6.290;2022-12-01T07:43:48;101973.41;;;9.66;77.91
25232;BME280;13176;51.140;6.290;2022-12-01T07:46:19;101944.63;;;9.54;77.32
25232;BME280;13176;51.140;6.290;2022-12-01T07:48:49;101976.69;;;9.50;77.80
25232;BME280;13176;51.140;6.290;2022-12-01T07:51:16;102000.44;;;9.74;77.66
25232;BME280;13176;51.140;6.290;2022-12-01T07:53:44;101981.16;;;9.60;77.82
25232;BME280;13176;51.140;6.290;2022-12-01T07:56:11;102006.53;;;9.76;77.55
25232;BME280;13176;51.140;6.290;2022-12-01T07:58:37;101986.44;;;9.66;77.66
25232;BME280;13176;51.140;6.290;2022-12-01T08:01:12;101969.91;;;9.62;77.54
25232;BME280;13176;51.140;6.290;2022-12-01T08:03:39;102003.22;;;9.92;77.57
25232;BME280;13176;51.140;6.290;2022-12-01T08:06:06;101945.44;;;9.48;77.56
25232;BME280;13176;51.140;6.290;2022-12-01T08:08:34;102006.69;;;9.89;77.84
25232;BME280;13176;51.140;6.290;2022-12-01T08:11:04;101960.25;;;9.54;77.95
25232;BME280;13176;51.140;6.290;2022-12-01T08:13:31;101990.13;;;9.83;77.88
25232;BME280;13176;51.140;6.290;2022-12-01T08:15:58;101972.56;;;9.68;77.58
25232;BME280;13176;51.140;6.290;2022-12-01T08:18:27;101956.03;;;9.63;77.92
25232;BME280;13176;51.140;6.290;2022-12-01T08:20:57;101997.19;;;9.96;77.64
25232;BME280;13176;51.140;6.290;2022-12-01T08:23:26;101974.41;;;9.77;77.58
25232;BME280;13176;51.140;6.290;2022-12-01T08:25:53;101970.88;;;9.72;77.54
25232;BME280;13176;51.140;6.290;2022-12-01T08:28:20;101957.06;;;9.79;77.19
25232;BME280;13176;51.140;6.290;2022-12-01T08:30:46;101967.50;;;9.82;77.16
25232;BME280;13176;51.140;6.290;2022-12-01T08:33:13;102009.63;;;10.22;77.05
25232;BME280;13176;51.140;6.290;2022-12-01T08:35:39;102020.06;;;10.23;77.05
25232;BME280;13176;51.140;6.290;2022-12-01T08:38:05;101922.13;;;9.62;76.86
25232;BME280;13176;51.140;6.290;2022-12-01T08:40:32;101968.41;;;9.87;77.31
25232;BME280;13176;51.140;6.290;2022-12-01T08:42:58;102018.28;;;10.17;77.29
25232;BME280;13176;51.140;6.290;2022-12-01T08:45:25;101940.41;;;9.63;77.21
25232;BME280;13176;51.140;6.290;2022-12-01T08:47:52;102002.38;;;9.96;77.69
25232;BME280;13176;51.140;6.290;2022-12-01T08:50:19;101972.72;;;9.85;77.24
25232;BME280;13176;51.140;6.290;2022-12-01T08:52:46;101985.75;;;9.83;77.60
25232;BME280;13176;51.140;6.290;2022-12-01T08:55:13;101965.72;;;9.78;77.52
25232;BME280;13176;51.140;6.290;2022-12-01T08:57:39;102008.53;;;9.99;77.68
25232;BME280;13176;51.140;6.290;2022-12-01T09:00:06;102014.72;;;10.09;77.95
25232;BME280;13176;51.140;6.290;2022-12-01T09:02:33;101977.94;;;9.82;78.03
25232;BME280;13176;51.140;6.290;2022-12-01T09:05:00;101965.63;;;9.69;78.04
25232;BME280;13176;51.140;6.290;2022-12-01T09:07:26;101927.25;;;9.53;78.12
25232;BME280;13176;51.140;6.290;2022-12-01T09:09:53;101961.44;;;9.84;78.17
25232;BME280;13176;51.140;6.290;2022-12-01T09:12:22;102021.69;;;10.10;78.58
25232;BME280;13176;51.140;6.290;2022-12-01T09:14:49;101986.66;;;9.87;78.57
25232;BME280;13176;51.140;6.290;2022-12-01T09:17:16;102023.41;;;10.08;78.59
25232;BME280;13176;51.140;6.290;2022-12-01T09:19:43;101935.88;;;9.49;78.80
25232;BME280;13176;51.140;6.290;2022-12-01T09:22:10;101915.97;;;9.54;78.94
25232;BME280;13176;51.140;6.290;2022-12-01T09:24:37;101877.44;;;9.23;78.88
25232;BME280;13176;51.140;6.290;2022-12-01T09:27:04;101973.44;;;9.70;79.15
25232;BME280;13176;51.140;6.290;2022-12-01T09:29:31;101961.25;;;9.65;79.84
25232;BME280;13176;51.140;6.290;2022-12-01T09:31:59;101901.13;;;9.44;79.00
25232;BME280;13176;51.140;6.290;2022-12-01T09:34:26;102011.06;;;9.95;79.54
25232;BME280;13176;51.140;6.290;2022-12-01T09:36:56;102013.03;;;10.14;79.12
25232;BME280;13176;51.140;6.290;2022-12-01T09:39:24;102019.19;;;10.20;78.74
25232;BME280;13176;51.140;6.290;2022-12-01T09:41:58;102039.22;;;10.25;78.79
25232;BME280;13176;51.140;6.290;2022-12-01T09:44:54;101947.50;;;9.79;78.70
25232;BME280;13176;51.140;6.290;2022-12-01T09:47:34;102042.78;;;10.33;78.72
25232;BME280;13176;51.140;6.290;2022-12-01T09:50:15;102035.81;;;10.32;78.90
25232;BME280;13176;51.140;6.290;2022-12-01T09:52:53;101915.09;;;9.55;79.12
25232;BME280;13176;51.140;6.290;2022-12-01T09:55:23;101983.28;;;9.97;78.94
25232;BME280;13176;51.140;6.290;2022-12-01T09:57:53;101895.03;;;9.42;78.83
25232;BME280;13176;51.140;6.290;2022-12-01T10:00:22;102034.09;;;10.34;79.05
25232;BME280;13176;51.140;6.290;2022-12-01T10:02:54;101925.81;;;9.82;79.02
25232;BME280;13176;51.140;6.290;2022-12-01T10:05:29;101950.25;;;9.96;78.84
25232;BME280;13176;51.140;6.290;2022-12-01T10:08:02;101922.34;;;9.86;78.35
25232;BME280;13176;51.140;6.290;2022-12-01T10:10:37;101946.78;;;9.97;78.31
25232;BME280;13176;51.140;6.290;2022-12-01T10:13:23;101924.13;;;9.90;78.03
25232;BME280;13176;51.140;6.290;2022-12-01T10:21:37;101976.59;;;10.20;78.11
25232;BME280;13176;51.140;6.290;2022-12-01T10:26:50;102017.53;;;10.31;79.00
25232;BME280;13176;51.140;6.290;2022-12-01T10:31:58;101951.06;;;9.87;79.33
25232;BME280;13176;51.140;6.290;2022-12-01T10:34:36;101906.44;;;9.56;79.43
25232;BME280;13176;51.140;6.290;2022-12-01T10:37:03;101929.13;;;9.66;80.18
25232;BME280;13176;51.140;6.290;2022-12-01T10:42:07;101983.34;;;10.00;80.48
25232;BME280;13176;51.140;6.290;2022-12-01T10:44:36;101950.06;;;9.75;80.69
25232;BME280;13176;51.140;6.290;2022-12-01T10:47:12;101964.03;;;9.86;80.97
25232;BME280;13176;51.140;6.290;2022-12-01T10:49:42;101957.22;;;9.97;80.44
25232;BME280;13176;51.140;6.290;2022-12-01T10:54:55;101988.66;;;10.10;79.96
25232;BME280;13176;51.140;6.290;2022-12-01T10:57:22;101891.75;;;9.62;80.72
25232;BME280;13176;51.140;6.290;2022-12-01T11:00:06;101997.50;;;10.28;80.26
25232;BME280;13176;51.140;6.290;2022-12-01T11:02:34;101943.22;;;9.89;80.08
25232;BME280;13176;51.140;6.290;2022-12-01T11:05:06;101860.22;;;9.35;79.95
25232;BME280;13176;51.140;6.290;2022-12-01T11:07:45;101880.34;;;9.53;80.85
25232;BME280;13176;51.140;6.290;2022-12-01T11:10:25;102004.38;;;10.20;80.13
25232;BME280;13176;51.140;6.290;2022-12-01T11:12:57;101995.75;;;10.27;80.42
25232;BME280;13176;51.140;6.290;2022-12-01T11:15:27;101994.03;;;10.29;80.28
25232;BME280;13176;51.140;6.290;2022-12-01T11:20:36;101883.84;;;9.55;80.29
25232;BME280;13176;51.140;6.290;2022-12-01T11:25:35;101979.91;;;10.04;80.61
25232;BME280;13176;51.140;6.290;2022-12-01T11:28:02;101971.81;;;9.77;81.78
25232;BME280;13176;51.140;6.290;2022-12-01T11:30:31;101983.44;;;10.09;80.97
25232;BME280;13176;51.140;6.290;2022-12-01T11:33:00;101939.75;;;9.90;80.65
25232;BME280;13176;51.140;6.290;2022-12-01T11:35:33;101929.28;;;9.84;80.73
25232;BME280;13176;51.140;6.290;2022-12-01T11:38:01;101977.38;;;10.13;80.56
25232;BME280;13176;51.140;6.290;2022-12-01T11:40:51;101938.03;;;9.92;80.62
25232;BME280;13176;51.140;6.290;2022-12-01T11:43:29;101960.91;;;10.17;80.26
25232;BME280;13176;51.140;6.290;2022-12-01T11:45:59;101988.84;;;10.32;79.92
25232;BME280;13176;51.140;6.290;2022-12-01T11:48:29;101894.56;;;9.88;79.42
25232;BME280;13176;51.140;6.290;2022-12-01T11:53:44;101977.56;;;10.32;79.39
25232;BME280;13176;51.140;6.290;2022-12-01T11:58:44;101948.72;;;10.13;79.29
25232;BME280;13176;51.140;6.290;2022-12-01T12:01:33;101962.72;;;10.29;79.12
25232;BME280;13176;51.140;6.290;2022-12-01T12:04:18;101973.19;;;10.32;79.25
25232;BME280;13176;51.140;6.290;2022-12-01T12:10:17;101943.66;;;10.36;78.79
25232;BME280;13176;51.140;6.290;2022-12-01T12:21:32;101943.75;;;10.48;77.97
25232;BME280;13176;51.140;6.290;2022-12-01T12:24:32;101957.69;;;10.56;77.95
25232;BME280;13176;51.140;6.290;2022-12-01T12:30:22;101899.22;;;10.24;77.95
25232;BME280;13176;51.140;6.290;2022-12-01T12:35:43;101966.34;;;10.46;77.93
25232;BME280;13176;51.140;6.290;2022-12-01T12:40:54;101941.88;;;10.29;77.75
25232;BME280;13176;51.140;6.290;2022-12-01T12:43:27;101910.38;;;10.03;78.28
25232;BME280;13176;51.140;6.290;2022-12-01T12:46:03;101905.00;;;9.91;78.75
25232;BME280;13176;51.140;6.290;2022-12-01T12:48:41;101959.25;;;10.30;78.48
25232;BME280;13176;51.140;6.290;2022-12-01T12:51:41;101919.88;;;9.99;79.27
25232;BME280;13176;51.140;6.290;2022-12-01T12:56:44;101870.31;;;9.96;78.48
25232;BME280;13176;51.140;6.290;2022-12-01T12:59:20;101942.69;;;10.20;79.03
25232;BME280;13176;51.140;6.290;2022-12-01T13:04:38;101872.91;;;9.93;78.44
25232;BME280;13176;51.140;6.290;2022-12-01T13:09:43;101926.94;;;10.11;79.13
25232;BME280;13176;51.140;6.290;2022-12-01T13:12:16;101849.22;;;9.68;79.12
25232;BME280;13176;51.140;6.290;2022-12-01T13:14:48;101894.56;;;9.88;79.54
25232;BME280;13176;51.140;6.290;2022-12-01T13:17:26;101885.81;;;9.80;79.91
25232;BME280;13176;51.140;6.290;2022-12-01T13:19:55;101915.44;;;9.91;80.06
25232;BME280;13176;51.140;6.290;2022-12-01T13:22:29;101918.28;;;10.12;79.37
25232;BME280;13176;51.140;6.290;2022-12-01T13:24:55;101923.59;;;10.25;79.28
25232;BME280;13176;51.140;6.290;2022-12-01T13:27:24;101860.69;;;9.86;79.35
25232;BME280;13176;51.140;6.290;2022-12-01T13:29:53;101875.31;;;9.71;80.37
25232;BME280;13176;51.140;6.290;2022-12-01T13:32:29;101853.69;;;9.82;79.61
25232;BME280;13176;51.140;6.290;2022-12-01T13:34:58;101907.91;;;10.22;79.54
25232;BME280;13176;51.140;6.290;2022-12-01T13:37:35;101893.13;;;10.20;79.68
25232;BME280;13176;51.140;6.290;2022-12-01T13:40:19;101906.22;;;10.28;78.90
25232;BME280;13176;51.140;6.290;2022-12-01T13:42:57;101863.47;;;10.07;78.76
25232;BME280;13176;51.140;6.290;2022-12-01T13:45:39;101868.47;;;9.83;79.11
25232;BME280;13176;51.140;6.290;2022-12-01T13:48:26;101770.78;;;9.35;79.11
25232;BME280;13176;51.140;6.290;2022-12-01T13:50:55;101916.63;;;10.28;78.66
25232;BME280;13176;51.140;6.290;2022-12-01T13:53:26;101910.59;;;10.35;78.62
25232;BME280;13176;51.140;6.290;2022-12-01T13:58:44;101910.59;;;10.35;78.70
25232;BME280;13176;51.140;6.290;2022-12-01T14:03:55;101866.97;;;10.08;78.54
25232;BME280;13176;51.140;6.290;2022-12-01T14:06:28;101922.75;;;10.30;78.75
25232;BME280;13176;51.140;6.290;2022-12-01T14:09:06;101884.44;;;10.23;78.66
25232;BME280;13176;51.140;6.290;2022-12-01T14:11:38;101840.75;;;9.96;78.52
25232;BME280;13176;51.140;6.290;2022-12-01T14:16:46;101882.66;;;10.17;78.64
25232;BME280;13176;51.140;6.290;2022-12-01T14:21:54;101880.94;;;10.19;78.60
25232;BME280;13176;51.140;6.290;2022-12-01T14:24:42;101913.19;;;10.32;78.40
25232;BME280;13176;51.140;6.290;2022-12-01T14:27:35;101903.66;;;10.37;78.28
25232;BME280;13176;51.140;6.290;2022-12-01T14:36:19;101908.81;;;10.28;78.30